Terminal Aerodrome Forecast
Issued by NWS

Home | Current Version | Previous Version | Text Only | Print | Product List | Glossary On
Versions: 1 2 3 4 5 6 7 8 9 10 11 12 13 14 15 16 17 18 19 20 21
000
FTUS42 KMLB 202300
TAFISM
TAF
KISM 202325Z 2100/2124 33008KT P6SM OVC025
     FM210600 34006KT P6SM BKN015 OVC020
     FM211500 36012KT P6SM SCT025 BKN035
      AMD NOT SKED 2102/2111=

USA.gov is the U.S. government's official web portal to all federal, state and local government web resources and services.